Main page
METAR-TAF:

METAR-TAF

Airports :

Hercílio Luz International Airport

Florianópolis, Santa Catarina, Brazil

latitude: 27-40S, longitude: 048-33W, elevation: 5 m

Current weather observation

The report was made 37 minutes ago, at 16:00 UTC
Wind 8 kt from the South
Temperature 23°C
Humidity 61%
Pressure 1014 hPa
Visibility 10 km or more
Broken clouds at a height of 3500 ft

METAR: SBFL 211600Z 19008KT 9999 BKN035 23/15 Q1014

Time: 13:37 (16:37 UTC)

Forecast

The report was made 7 hours and 7 minutes ago, at 09:30 UTC
Forecast valid from 21 at 12 UTC to 22 at 12 UTC
Wind 10 kt from the Southwest
Visibility 10 km or more
Broken clouds at a height of 2500 ft
Becoming
from 21 at 14 UTC to 21 at 16 UTC
Wind 10 kt from the South/Southeast
Scattered clouds at a height of 3000 ft

TAF: SBFL 210930Z 2112/2212 22010KT 9999 BKN025 TX29/2117Z TN22/2208Z BECMG 2114/2116 16010KT SCT030 RMK PDZ

Weather observations and forecasts of more than 4000 airports (METAR and TAF reports).

The available stations are represented by yellow and red dots on the map.

Hover mouse over dot to see the name of the station.

Then click to see weather observations and forecasts.

To change the map : click on the green buttons with a black cross to zoom in, on the green button with a dash to zoom out, or on the green arrows for adjacent maps.


METAR-TAF: